RYR12RR EGSS-LEAM
Flight info
| Callsign | RYR12RR |
|---|---|
| Flight time | N/A |
| Altitude | 35000 |
| Route | NUGBO M183 SILVA Q41 COWLY UT71 VAPID UN859 SOPIL DCT BALAN DCT LMG DCT PIMQO DCT AGN DCT ANETO N860 DOSEK |
| Aircraft | B38M/M-SDE1FGHILORVWXY/HB1 |
Departure
| Time | N/A |
|---|---|
| Airport | London Stansted Airport (EGSS) |
Arrival
| Time | 2026-04-14 16:51 |
|---|---|
| Airport | Almería Airport (LEAM) |
| Time | Latitude | Longitude | Altitude | Speed | Heading |
|---|---|---|---|---|---|
| 2026-04-14 16:09 | 40.85524 | 0.05472 | 35057 ft | 511 kts | 199° |
| 2026-04-14 16:10 | 40.82112 | 0.04105 | 35076 ft | 512 kts | 199° |
| 2026-04-14 16:10 | 40.75281 | 0.01371 | 35068 ft | 513 kts | 199° |
| 2026-04-14 16:11 | 40.68447 | -0.01357 | 35079 ft | 514 kts | 199° |
| 2026-04-14 16:11 | 40.61650 | -0.04066 | 35070 ft | 508 kts | 200° |
| 2026-04-14 16:12 | 40.54898 | -0.06750 | 35091 ft | 507 kts | 200° |
| 2026-04-14 16:12 | 40.48137 | -0.09434 | 35087 ft | 508 kts | 200° |
| 2026-04-14 16:13 | 40.41368 | -0.12114 | 35078 ft | 508 kts | 201° |
| 2026-04-14 16:13 | 40.34594 | -0.14791 | 35110 ft | 508 kts | 200° |
| 2026-04-14 16:14 | 40.27828 | -0.17459 | 35110 ft | 508 kts | 200° |
| 2026-04-14 16:14 | 40.21058 | -0.20124 | 35126 ft | 508 kts | 200° |
| 2026-04-14 16:15 | 40.14291 | -0.22782 | 35118 ft | 508 kts | 200° |
| 2026-04-14 16:15 | 40.07529 | -0.25431 | 35127 ft | 508 kts | 200° |
| 2026-04-14 16:16 | 40.00750 | -0.28082 | 35108 ft | 508 kts | 200° |
| 2026-04-14 16:16 | 39.93963 | -0.30729 | 35106 ft | 511 kts | 200° |
| 2026-04-14 16:17 | 39.87121 | -0.33393 | 35105 ft | 514 kts | 200° |
| 2026-04-14 16:17 | 39.80264 | -0.36057 | 35120 ft | 514 kts | 200° |
| 2026-04-14 16:18 | 39.73418 | -0.38713 | 35096 ft | 513 kts | 200° |
| 2026-04-14 16:18 | 39.66578 | -0.41360 | 35099 ft | 514 kts | 200° |
| 2026-04-14 16:19 | 39.59766 | -0.43991 | 35102 ft | 513 kts | 200° |
| 2026-04-14 16:19 | 39.52930 | -0.46626 | 35099 ft | 513 kts | 200° |
| 2026-04-14 16:20 | 39.46323 | -0.49862 | 35108 ft | 501 kts | 216° |
| 2026-04-14 16:20 | 39.40165 | -0.54173 | 35090 ft | 503 kts | 214° |
| 2026-04-14 16:21 | 39.33986 | -0.58463 | 35100 ft | 504 kts | 214° |
| 2026-04-14 16:21 | 39.27810 | -0.62751 | 35110 ft | 504 kts | 214° |
| 2026-04-14 16:22 | 39.21631 | -0.67034 | 35111 ft | 504 kts | 214° |
| 2026-04-14 16:22 | 39.15439 | -0.71315 | 35113 ft | 505 kts | 214° |
| 2026-04-14 16:23 | 39.09247 | -0.75589 | 35116 ft | 505 kts | 214° |
| 2026-04-14 16:23 | 39.03054 | -0.79853 | 35125 ft | 505 kts | 214° |
| 2026-04-14 16:24 | 38.96859 | -0.84112 | 35116 ft | 505 kts | 214° |
| 2026-04-14 16:24 | 38.90664 | -0.88361 | 35117 ft | 505 kts | 214° |
| 2026-04-14 16:24 | 38.87597 | -0.90461 | 34997 ft | 494 kts | 214° |
| 2026-04-14 16:25 | 38.84590 | -0.92521 | 34660 ft | 487 kts | 214° |
| 2026-04-14 16:25 | 38.81606 | -0.94560 | 34173 ft | 485 kts | 214° |
| 2026-04-14 16:25 | 38.78631 | -0.96592 | 33636 ft | 484 kts | 214° |
| 2026-04-14 16:25 | 38.75660 | -0.98618 | 33109 ft | 482 kts | 214° |
| 2026-04-14 16:26 | 38.72709 | -1.00630 | 32611 ft | 480 kts | 214° |
| 2026-04-14 16:26 | 38.69761 | -1.02637 | 32133 ft | 478 kts | 214° |
| 2026-04-14 16:26 | 38.66837 | -1.04628 | 31734 ft | 474 kts | 214° |
| 2026-04-14 16:26 | 38.63942 | -1.06596 | 31296 ft | 471 kts | 213° |
| 2026-04-14 16:27 | 38.61050 | -1.08560 | 30842 ft | 468 kts | 213° |
| 2026-04-14 16:27 | 38.58181 | -1.10507 | 30388 ft | 465 kts | 213° |
| 2026-04-14 16:27 | 38.55331 | -1.12440 | 29941 ft | 462 kts | 213° |
| 2026-04-14 16:27 | 38.52500 | -1.14357 | 29511 ft | 459 kts | 213° |
| 2026-04-14 16:28 | 38.49688 | -1.16259 | 29087 ft | 456 kts | 213° |
| 2026-04-14 16:28 | 38.46896 | -1.18148 | 28663 ft | 453 kts | 213° |
| 2026-04-14 16:28 | 38.44118 | -1.20024 | 28246 ft | 450 kts | 213° |
| 2026-04-14 16:28 | 38.41354 | -1.21890 | 27807 ft | 449 kts | 213° |
| 2026-04-14 16:29 | 38.38602 | -1.23745 | 27392 ft | 446 kts | 213° |
| 2026-04-14 16:29 | 38.35871 | -1.25587 | 26982 ft | 444 kts | 212° |
| 2026-04-14 16:29 | 38.33147 | -1.27420 | 26583 ft | 441 kts | 212° |
| 2026-04-14 16:29 | 38.30441 | -1.29241 | 26179 ft | 439 kts | 212° |
| 2026-04-14 16:30 | 38.27750 | -1.31049 | 25783 ft | 436 kts | 212° |
| 2026-04-14 16:30 | 38.25076 | -1.32844 | 25382 ft | 434 kts | 212° |
| 2026-04-14 16:30 | 38.22416 | -1.34629 | 24981 ft | 431 kts | 212° |
| 2026-04-14 16:30 | 38.19768 | -1.36404 | 24601 ft | 429 kts | 212° |
| 2026-04-14 16:31 | 38.17134 | -1.38169 | 24209 ft | 427 kts | 212° |
| 2026-04-14 16:31 | 38.14509 | -1.39925 | 23829 ft | 425 kts | 212° |
| 2026-04-14 16:31 | 38.11894 | -1.41675 | 23409 ft | 424 kts | 212° |
| 2026-04-14 16:31 | 38.09298 | -1.43409 | 23053 ft | 421 kts | 211° |
| 2026-04-14 16:32 | 38.06713 | -1.45134 | 22665 ft | 418 kts | 211° |
| 2026-04-14 16:32 | 38.04148 | -1.46845 | 22301 ft | 415 kts | 211° |
| 2026-04-14 16:32 | 38.01596 | -1.48547 | 21887 ft | 414 kts | 211° |
| 2026-04-14 16:32 | 37.99055 | -1.50240 | 21528 ft | 411 kts | 211° |
| 2026-04-14 16:33 | 37.96529 | -1.51921 | 21149 ft | 409 kts | 211° |
| 2026-04-14 16:33 | 37.94018 | -1.53592 | 20780 ft | 407 kts | 211° |
| 2026-04-14 16:33 | 37.91518 | -1.55253 | 20418 ft | 405 kts | 211° |
| 2026-04-14 16:33 | 37.89016 | -1.56885 | 19978 ft | 405 kts | 210° |
| 2026-04-14 16:34 | 37.86523 | -1.58505 | 19643 ft | 400 kts | 210° |
| 2026-04-14 16:34 | 37.84062 | -1.60107 | 19308 ft | 396 kts | 210° |
| 2026-04-14 16:34 | 37.81621 | -1.61697 | 18930 ft | 393 kts | 210° |
| 2026-04-14 16:34 | 37.79198 | -1.63271 | 18568 ft | 390 kts | 210° |
| 2026-04-14 16:35 | 37.76795 | -1.64833 | 18210 ft | 387 kts | 210° |
| 2026-04-14 16:35 | 37.74412 | -1.66379 | 17841 ft | 384 kts | 210° |
| 2026-04-14 16:35 | 37.72045 | -1.67915 | 17481 ft | 381 kts | 210° |
| 2026-04-14 16:35 | 37.69696 | -1.69439 | 17133 ft | 378 kts | 210° |
| 2026-04-14 16:36 | 37.67365 | -1.70950 | 16782 ft | 375 kts | 210° |
| 2026-04-14 16:36 | 37.65053 | -1.72446 | 16428 ft | 372 kts | 210° |
| 2026-04-14 16:36 | 37.62762 | -1.73929 | 16076 ft | 369 kts | 210° |
| 2026-04-14 16:36 | 37.60518 | -1.75379 | 15734 ft | 366 kts | 210° |
| 2026-04-14 16:37 | 37.58262 | -1.76836 | 15383 ft | 363 kts | 210° |
| 2026-04-14 16:37 | 37.56025 | -1.78280 | 15101 ft | 358 kts | 210° |
| 2026-04-14 16:37 | 37.53845 | -1.79687 | 15100 ft | 344 kts | 210° |
| 2026-04-14 16:37 | 37.51756 | -1.81034 | 15114 ft | 333 kts | 210° |
| 2026-04-14 16:38 | 37.49698 | -1.82361 | 15115 ft | 332 kts | 210° |
| 2026-04-14 16:38 | 37.47649 | -1.83680 | 15097 ft | 331 kts | 210° |
| 2026-04-14 16:38 | 37.45599 | -1.85000 | 15102 ft | 331 kts | 210° |
| 2026-04-14 16:38 | 37.43549 | -1.86318 | 15096 ft | 331 kts | 210° |
| 2026-04-14 16:39 | 37.41500 | -1.87635 | 15104 ft | 331 kts | 210° |
| 2026-04-14 16:39 | 37.39449 | -1.88952 | 15122 ft | 331 kts | 210° |
| 2026-04-14 16:39 | 37.37397 | -1.90269 | 15128 ft | 331 kts | 210° |
| 2026-04-14 16:39 | 37.35347 | -1.91585 | 14811 ft | 332 kts | 210° |
| 2026-04-14 16:40 | 37.33238 | -1.92938 | 13805 ft | 346 kts | 210° |
| 2026-04-14 16:40 | 37.31092 | -1.94313 | 13121 ft | 346 kts | 210° |
| 2026-04-14 16:40 | 37.28956 | -1.95681 | 12466 ft | 344 kts | 210° |
| 2026-04-14 16:40 | 37.26832 | -1.97040 | 11811 ft | 342 kts | 210° |
| 2026-04-14 16:41 | 37.24727 | -1.98392 | 11179 ft | 338 kts | 211° |
| 2026-04-14 16:41 | 37.22660 | -1.99774 | 10567 ft | 335 kts | 211° |
| 2026-04-14 16:41 | 37.20622 | -2.01139 | 9980 ft | 331 kts | 211° |
| 2026-04-14 16:41 | 37.18605 | -2.02488 | 9401 ft | 326 kts | 211° |
| 2026-04-14 16:42 | 37.16623 | -2.03810 | 8943 ft | 318 kts | 211° |
| 2026-04-14 16:42 | 37.14713 | -2.05082 | 8611 ft | 304 kts | 211° |
| 2026-04-14 16:42 | 37.12886 | -2.06300 | 8380 ft | 290 kts | 211° |
| 2026-04-14 16:42 | 37.11132 | -2.07468 | 8128 ft | 284 kts | 211° |
| 2026-04-14 16:43 | 37.09395 | -2.08623 | 7877 ft | 279 kts | 211° |
| 2026-04-14 16:43 | 37.07715 | -2.09744 | 7614 ft | 268 kts | 211° |
| 2026-04-14 16:43 | 37.06029 | -2.10658 | 7302 ft | 262 kts | 199° |
| 2026-04-14 16:43 | 37.04251 | -2.11062 | 7018 ft | 257 kts | 185° |
| 2026-04-14 16:44 | 37.02503 | -2.11006 | 6763 ft | 247 kts | 173° |
| 2026-04-14 16:44 | 37.00843 | -2.10574 | 6554 ft | 243 kts | 163° |
| 2026-04-14 16:44 | 36.99277 | -2.09792 | 6387 ft | 242 kts | 152° |
| 2026-04-14 16:45 | 36.96641 | -2.07269 | 5895 ft | 237 kts | 138° |
| 2026-04-14 16:45 | 36.95231 | -2.06219 | 5599 ft | 239 kts | 165° |
| 2026-04-14 16:45 | 36.93586 | -2.06073 | 5263 ft | 238 kts | 192° |
| 2026-04-14 16:45 | 36.92043 | -2.06779 | 4897 ft | 237 kts | 215° |
| 2026-04-14 16:46 | 36.91215 | -2.07678 | 4687 ft | 232 kts | 238° |
| 2026-04-14 16:46 | 36.90670 | -2.09526 | 4361 ft | 226 kts | 264° |
| 2026-04-14 16:46 | 36.90468 | -2.11477 | 4031 ft | 228 kts | 261° |
| 2026-04-14 16:46 | 36.90132 | -2.13427 | 3697 ft | 232 kts | 257° |
| 2026-04-14 16:47 | 36.89712 | -2.15346 | 3443 ft | 229 kts | 254° |
| 2026-04-14 16:47 | 36.89258 | -2.17249 | 3109 ft | 224 kts | 253° |
| 2026-04-14 16:47 | 36.88812 | -2.19058 | 2785 ft | 218 kts | 253° |
| 2026-04-14 16:47 | 36.88365 | -2.20873 | 2479 ft | 213 kts | 252° |
| 2026-04-14 16:48 | 36.87940 | -2.22605 | 2190 ft | 209 kts | 252° |
| 2026-04-14 16:48 | 36.87512 | -2.24347 | 1893 ft | 203 kts | 252° |
| 2026-04-14 16:48 | 36.87129 | -2.25906 | 1670 ft | 175 kts | 251° |
| 2026-04-14 16:48 | 36.86794 | -2.27265 | 1443 ft | 153 kts | 251° |
| 2026-04-14 16:49 | 36.86494 | -2.28481 | 1255 ft | 143 kts | 251° |
| 2026-04-14 16:49 | 36.86207 | -2.29648 | 1026 ft | 139 kts | 251° |
| 2026-04-14 16:49 | 36.85923 | -2.30803 | 821 ft | 139 kts | 251° |
| 2026-04-14 16:49 | 36.85636 | -2.31959 | 661 ft | 138 kts | 251° |
| 2026-04-14 16:50 | 36.85354 | -2.33105 | 455 ft | 138 kts | 252° |
| 2026-04-14 16:50 | 36.85083 | -2.34233 | 280 ft | 133 kts | 251° |
| 2026-04-14 16:50 | 36.84805 | -2.35344 | 118 ft | 135 kts | 251° |
| 2026-04-14 16:50 | 36.84547 | -2.36384 | 66 ft | 111 kts | 253° |
| 2026-04-14 16:51 | 36.84344 | -2.37209 | 55 ft | 89 kts | 252° |
| 2026-04-14 16:51 | 36.84215 | -2.37739 | 50 ft | 35 kts | 255° |
| 2026-04-14 16:51 | 36.84201 | -2.38018 | 46 ft | 18 kts | 277° |
| 2026-04-14 16:51 | 36.84219 | -2.38161 | 43 ft | 13 kts | 287° |
| 2026-04-14 16:52 | 36.84271 | -2.38190 | 44 ft | 7 kts | 39° |
| 2026-04-14 16:52 | 36.84292 | -2.38127 | 45 ft | 9 kts | 75° |
| 2026-04-14 16:52 | 36.84310 | -2.38047 | 46 ft | 10 kts | 73° |
| 2026-04-14 16:52 | 36.84334 | -2.37953 | 47 ft | 12 kts | 71° |
| 2026-04-14 16:53 | 36.84362 | -2.37846 | 49 ft | 14 kts | 72° |
| 2026-04-14 16:53 | 36.84392 | -2.37725 | 50 ft | 15 kts | 71° |
| 2026-04-14 16:53 | 36.84424 | -2.37591 | 52 ft | 17 kts | 73° |
| 2026-04-14 16:53 | 36.84461 | -2.37444 | 54 ft | 18 kts | 73° |
| 2026-04-14 16:54 | 36.84528 | -2.37381 | 52 ft | 13 kts | 2° |
| 2026-04-14 16:54 | 36.84573 | -2.37291 | 56 ft | 10 kts | 70° |
| 2026-04-14 16:54 | 36.84630 | -2.37280 | 57 ft | 10 kts | 341° |
| 2026-04-14 16:54 | 36.84664 | -2.37277 | 55 ft | 2 kts | 71° |
| 2026-04-14 16:55 | 36.84660 | -2.37267 | 57 ft | 0 kts | 123° |
| 2026-04-14 16:55 | 36.84655 | -2.37257 | 51 ft | 3 kts | 123° |
| 2026-04-14 16:55 | 36.84652 | -2.37252 | 57 ft | 0 kts | 122° |